Time;durP1;ratioP1;P1;durP2;ratioP2;P2;SDS_P1;SDS_P2;PMS_P1;PMS_P2;Temp;Humidity;BMP_temperature;BMP_pressure;BME280_temperature;BME280_humidity;BME280_pressure;Samples;Min_cycle;Max_cycle;Signal;HPM_P1;HPM_P2
2024/03/18 00:00:12;;;;;;;20.08;16.95;;;8.60;99.90;;;;;;7377381;19;20040;-63
2024/03/18 00:02:39;;;;;;;23.00;16.83;;;8.60;99.90;;;;;;7376867;19;20013;-64
2024/03/18 00:05:06;;;;;;;24.58;18.05;;;8.70;99.90;;;;;;7376545;19;20653;-64
2024/03/18 00:07:32;;;;;;;22.30;17.58;;;8.70;99.90;;;;;;7379263;19;20025;-63
2024/03/18 00:10:03;;;;;;;24.13;17.70;;;8.70;99.90;;;;;;7378467;19;20045;-63
2024/03/18 00:12:29;;;;;;;24.02;17.88;;;8.60;99.90;;;;;;7378313;19;20014;-63
2024/03/18 00:14:55;;;;;;;24.30;17.73;;;8.70;99.90;;;;;;7373186;19;20029;-63
2024/03/18 00:17:22;;;;;;;23.08;18.75;;;8.70;99.90;;;;;;7377356;19;20580;-64
2024/03/18 00:19:48;;;;;;;23.13;17.83;;;8.70;99.90;;;;;;7370947;19;20019;-64
2024/03/18 00:22:15;;;;;;;21.73;16.67;;;8.70;99.90;;;;;;7379352;19;20784;-64
2024/03/18 00:24:41;;;;;;;22.52;16.38;;;8.70;99.90;;;;;;7372249;19;20018;-65
2024/03/18 00:27:07;;;;;;;22.25;16.27;;;8.60;99.90;;;;;;7378541;19;20019;-65
2024/03/18 00:29:33;;;;;;;23.00;17.55;;;8.70;99.90;;;;;;7368617;19;20026;-64
2024/03/18 00:31:59;;;;;;;22.08;18.27;;;8.70;99.90;;;;;;7371735;19;20029;-64
2024/03/18 00:34:26;;;;;;;22.38;17.73;;;8.60;99.90;;;;;;7371053;19;20032;-64
2024/03/18 00:36:52;;;;;;;24.83;16.63;;;8.60;99.90;;;;;;7369121;19;20025;-64
2024/03/18 00:39:18;;;;;;;20.65;16.92;;;8.70;99.90;;;;;;7370095;19;20010;-63
2024/03/18 00:41:45;;;;;;;19.80;16.92;;;8.60;99.90;;;;;;7365494;19;20032;-64
2024/03/18 00:44:15;;;;;;;21.73;17.70;;;8.60;99.90;;;;;;7369702;19;20018;-64
2024/03/18 00:46:44;;;;;;;21.20;15.98;;;8.60;99.90;;;;;;7367275;19;20022;-63
2024/03/18 00:49:11;;;;;;;20.30;17.38;;;8.60;99.90;;;;;;7370603;19;20026;-64
2024/03/18 00:51:38;;;;;;;18.98;15.85;;;8.60;99.90;;;;;;7370583;19;20026;-64
2024/03/18 00:54:05;;;;;;;20.20;16.02;;;8.60;99.90;;;;;;7372470;19;20018;-64
2024/03/18 00:56:33;;;;;;;22.60;17.10;;;8.60;99.90;;;;;;7369765;19;20059;-63
2024/03/18 00:59:03;;;;;;;20.45;15.98;;;8.60;99.90;;;;;;7371205;19;20022;-64
2024/03/18 01:01:30;;;;;;;20.17;15.02;;;8.50;99.90;;;;;;7373676;19;20047;-63
2024/03/18 01:03:57;;;;;;;23.13;17.27;;;8.50;99.90;;;;;;7368869;19;20102;-65
2024/03/18 01:06:26;;;;;;;21.80;17.02;;;8.50;99.90;;;;;;7370585;19;20022;-65
2024/03/18 01:08:54;;;;;;;24.23;17.60;;;8.50;99.90;;;;;;7362589;19;20022;-64
2024/03/18 01:11:20;;;;;;;24.10;18.13;;;8.50;99.90;;;;;;7372684;19;20025;-65
2024/03/18 01:13:47;;;;;;;22.20;17.00;;;8.50;99.90;;;;;;7366681;19;20371;-64
2024/03/18 01:16:15;;;;;;;22.88;17.38;;;8.40;99.90;;;;;;7371662;19;20025;-65
2024/03/18 01:18:42;;;;;;;24.73;16.80;;;8.50;99.90;;;;;;7364409;19;20850;-65
2024/03/18 01:21:11;;;;;;;23.33;17.88;;;8.40;99.90;;;;;;7368981;19;20049;-65
2024/03/18 01:23:37;;;;;;;20.00;16.83;;;8.40;99.90;;;;;;7366426;19;20015;-64
2024/03/18 01:26:04;;;;;;;19.80;15.90;;;8.40;99.90;;;;;;7370257;19;20025;-64
2024/03/18 01:28:30;;;;;;;23.50;17.50;;;8.40;99.90;;;;;;7366329;19;20065;-64
2024/03/18 01:30:57;;;;;;;21.92;17.50;;;8.40;99.90;;;;;;7369393;19;20078;-64
2024/03/18 01:33:23;;;;;;;22.40;17.95;;;8.40;99.90;;;;;;7369140;19;20029;-64
2024/03/18 01:35:50;;;;;;;20.52;17.45;;;8.40;99.90;;;;;;7372177;19;20462;-64
2024/03/18 01:38:16;;;;;;;20.52;16.90;;;8.50;99.90;;;;;;7366302;19;20014;-65
2024/03/18 01:40:42;;;;;;;22.17;17.45;;;8.40;99.90;;;;;;7368854;19;20410;-64
2024/03/18 01:43:09;;;;;;;21.33;17.05;;;8.40;99.90;;;;;;7365451;19;20041;-64
2024/03/18 01:45:38;;;;;;;23.17;17.48;;;8.40;99.90;;;;;;7369803;19;20023;-64
2024/03/18 01:48:05;;;;;;;22.80;17.90;;;8.40;99.90;;;;;;7374364;19;20078;-63
2024/03/18 01:50:31;;;;;;;23.52;18.40;;;8.30;99.90;;;;;;7367749;19;20891;-63
2024/03/18 01:52:58;;;;;;;20.13;15.77;;;8.30;99.90;;;;;;7359865;19;20073;-63
2024/03/18 01:55:25;;;;;;;24.88;19.33;;;8.30;99.90;;;;;;7365822;19;20023;-64
2024/03/18 01:57:52;;;;;;;22.80;16.95;;;8.30;99.90;;;;;;7371372;19;21334;-64
2024/03/18 02:00:32;;;;;;;24.33;20.00;;;8.20;99.90;;;;;;7371967;19;20022;-63
2024/03/18 02:03:00;;;;;;;26.45;19.33;;;8.20;99.90;;;;;;7368983;19;20033;-64
2024/03/18 02:05:27;;;;;;;22.40;17.92;;;8.10;99.90;;;;;;7369690;19;20037;-63
2024/03/18 02:07:54;;;;;;;25.77;19.95;;;8.10;99.90;;;;;;7366967;19;20070;-63
2024/03/18 02:10:20;;;;;;;23.80;17.67;;;8.10;99.90;;;;;;7362301;19;20586;-64
2024/03/18 02:12:46;;;;;;;21.92;18.55;;;8.10;99.90;;;;;;7367611;19;20022;-64
2024/03/18 02:15:14;;;;;;;27.10;20.08;;;8.10;99.90;;;;;;7368668;19;20022;-64
2024/03/18 02:17:40;;;;;;;26.05;20.20;;;8.00;99.90;;;;;;7370030;19;20022;-63
2024/03/18 02:20:09;;;;;;;25.95;20.35;;;8.00;99.90;;;;;;7355313;19;20038;-63
2024/03/18 02:22:38;;;;;;;28.10;20.73;;;8.00;99.90;;;;;;7369178;19;20380;-64
2024/03/18 02:25:04;;;;;;;27.42;21.55;;;8.00;99.90;;;;;;7360907;19;21559;-63
2024/03/18 02:27:30;;;;;;;27.92;18.67;;;8.00;99.90;;;;;;7368642;19;20025;-63
2024/03/18 02:29:57;;;;;;;30.45;20.73;;;8.00;99.90;;;;;;7364301;19;20360;-64
2024/03/18 02:32:23;;;;;;;31.63;20.15;;;7.90;99.90;;;;;;7364349;19;20019;-63
2024/03/18 02:34:50;;;;;;;30.35;22.92;;;7.90;99.90;;;;;;7365330;19;20789;-63
2024/03/18 02:37:16;;;;;;;27.83;20.85;;;7.90;99.90;;;;;;7361543;19;20369;-63
2024/03/18 02:39:42;;;;;;;29.98;22.13;;;7.90;99.90;;;;;;7370134;19;20037;-63
2024/03/18 02:42:08;;;;;;;31.38;21.42;;;8.00;99.90;;;;;;7360983;19;20023;-64
2024/03/18 02:44:36;;;;;;;27.60;23.55;;;8.00;99.90;;;;;;7363747;19;20035;-63
2024/03/18 02:47:02;;;;;;;27.17;20.77;;;8.00;99.90;;;;;;7363732;19;20776;-64
2024/03/18 02:49:29;;;;;;;31.80;22.77;;;8.00;99.90;;;;;;7366345;19;20030;-63
2024/03/18 02:51:55;;;;;;;28.17;21.70;;;8.00;99.90;;;;;;7368171;19;20049;-63
2024/03/18 02:54:21;;;;;;;30.92;23.02;;;7.90;99.90;;;;;;7364732;19;20042;-62
2024/03/18 02:56:47;;;;;;;27.92;21.45;;;7.90;99.90;;;;;;7364298;19;20086;-61
2024/03/18 02:59:13;;;;;;;29.45;22.40;;;7.90;99.90;;;;;;7367544;19;20832;-62
2024/03/18 03:01:41;;;;;;;29.63;24.20;;;7.90;99.90;;;;;;7359979;19;20094;-62
2024/03/18 03:04:08;;;;;;;32.05;22.48;;;7.90;99.90;;;;;;7365255;19;20053;-63
2024/03/18 03:06:35;;;;;;;30.30;22.65;;;7.90;99.90;;;;;;7364227;19;20423;-62
2024/03/18 03:09:02;;;;;;;27.98;21.30;;;7.90;99.90;;;;;;7362624;19;20033;-62
2024/03/18 03:11:29;;;;;;;30.83;22.75;;;7.90;99.90;;;;;;7366983;19;20497;-61
2024/03/18 03:13:55;;;;;;;33.42;25.27;;;7.90;99.90;;;;;;7364870;19;20686;-62
2024/03/18 03:16:21;;;;;;;29.98;24.20;;;7.90;99.90;;;;;;7366755;19;20348;-63
2024/03/18 03:18:47;;;;;;;31.63;24.55;;;7.90;99.90;;;;;;7367934;19;20776;-63
2024/03/18 03:21:15;;;;;;;28.73;21.88;;;7.90;99.90;;;;;;7366574;19;20698;-63
2024/03/18 03:23:42;;;;;;;31.08;22.77;;;7.90;99.90;;;;;;7368178;19;20888;-65
2024/03/18 03:26:08;;;;;;;30.45;24.27;;;7.90;99.90;;;;;;7381170;19;20019;-62
2024/03/18 03:28:34;;;;;;;32.97;24.98;;;8.00;99.90;;;;;;7380784;19;20383;-63
2024/03/18 03:31:06;;;;;;;33.03;23.92;;;7.90;99.90;;;;;;7379096;19;20022;-62
2024/03/18 03:33:35;;;;;;;32.03;24.63;;;7.90;99.90;;;;;;7380103;19;20026;-62
2024/03/18 03:36:02;;;;;;;29.80;24.30;;;7.90;99.90;;;;;;7379743;19;20022;-62
2024/03/18 03:38:28;;;;;;;31.95;24.98;;;7.90;99.90;;;;;;7371367;19;20052;-63
2024/03/18 03:40:55;;;;;;;31.95;25.38;;;7.90;99.90;;;;;;7374312;19;20027;-62
2024/03/18 03:43:22;;;;;;;33.65;24.42;;;7.90;99.90;;;;;;7376331;19;20022;-62
2024/03/18 03:45:56;;;;;;;33.35;23.65;;;7.90;99.90;;;;;;7379225;19;20035;-63
2024/03/18 03:48:23;;;;;;;31.10;24.75;;;7.90;99.90;;;;;;7383207;19;20048;-63
2024/03/18 03:50:50;;;;;;;34.65;23.63;;;7.90;99.90;;;;;;7370816;19;20019;-63
2024/03/18 03:53:18;;;;;;;33.75;24.02;;;7.90;99.90;;;;;;7374120;19;20022;-63
2024/03/18 03:55:51;;;;;;;37.38;26.73;;;7.90;99.90;;;;;;7380236;19;20106;-63
2024/03/18 03:58:18;;;;;;;36.45;24.60;;;7.90;99.90;;;;;;7381288;19;20018;-64
2024/03/18 04:00:45;;;;;;;39.97;27.88;;;7.90;99.90;;;;;;7379465;19;20399;-64
2024/03/18 04:03:20;;;;;;;39.78;26.83;;;7.90;99.90;;;;;;7379798;19;20026;-64
2024/03/18 04:05:46;;;;;;;36.85;26.00;;;7.90;99.90;;;;;;7379393;19;20710;-64
2024/03/18 04:08:13;;;;;;;46.40;29.33;;;7.90;99.90;;;;;;7374781;19;20014;-64
2024/03/18 04:10:39;;;;;;;39.63;29.52;;;7.90;99.90;;;;;;7378974;19;20014;-64
2024/03/18 04:13:06;;;;;;;43.25;28.90;;;7.90;99.90;;;;;;7378877;19;20034;-65
2024/03/18 04:15:33;;;;;;;42.08;29.27;;;7.90;99.90;;;;;;7379157;19;20022;-63
2024/03/18 04:17:59;;;;;;;41.83;29.50;;;7.90;99.90;;;;;;7376443;19;20353;-63
2024/03/18 04:20:27;;;;;;;43.65;28.88;;;7.90;99.90;;;;;;7381469;19;20014;-63
2024/03/18 04:22:53;;;;;;;42.33;29.88;;;7.90;99.90;;;;;;7375709;19;20033;-63
2024/03/18 04:25:21;;;;;;;43.05;32.10;;;7.90;99.90;;;;;;7378309;19;20019;-63
2024/03/18 04:27:48;;;;;;;44.63;31.10;;;7.90;99.90;;;;;;7382770;19;20025;-62
2024/03/18 04:30:17;;;;;;;41.67;30.60;;;7.90;99.90;;;;;;7379841;19;20015;-62
2024/03/18 04:32:43;;;;;;;47.42;31.38;;;7.90;99.90;;;;;;7380974;19;20026;-63
2024/03/18 04:35:11;;;;;;;45.80;33.33;;;7.90;99.90;;;;;;7374521;19;21382;-62
2024/03/18 04:37:47;;;;;;;45.15;31.05;;;7.90;99.90;;;;;;7370534;19;20569;-62
2024/03/18 04:40:14;;;;;;;45.58;31.88;;;7.80;99.90;;;;;;7366849;19;20482;-62
2024/03/18 04:42:41;;;;;;;41.42;28.27;;;7.90;99.90;;;;;;7373956;19;20019;-64
2024/03/18 04:45:09;;;;;;;47.97;32.10;;;7.80;99.90;;;;;;7365818;19;20017;-64
2024/03/18 04:47:38;;;;;;;47.58;30.75;;;7.80;99.90;;;;;;7372556;19;20495;-63
2024/03/18 04:50:11;;;;;;;49.60;32.08;;;7.90;99.90;;;;;;7369132;19;20026;-63
2024/03/18 04:52:37;;;;;;;43.67;31.00;;;7.90;99.90;;;;;;7374434;19;20026;-63
2024/03/18 04:55:05;;;;;;;48.03;32.88;;;7.90;99.90;;;;;;7369551;19;20090;-63
2024/03/18 04:57:32;;;;;;;52.63;34.15;;;7.90;99.90;;;;;;7369021;19;20375;-63
2024/03/18 04:59:59;;;;;;;53.05;32.42;;;7.90;99.90;;;;;;7370420;19;20026;-64
2024/03/18 05:02:26;;;;;;;52.05;32.13;;;7.90;99.90;;;;;;7369004;19;20014;-64
2024/03/18 05:04:52;;;;;;;54.60;32.70;;;7.90;99.90;;;;;;7367830;19;20023;-64
2024/03/18 05:07:18;;;;;;;53.00;33.30;;;7.90;99.90;;;;;;7370954;19;20366;-63
2024/03/18 05:09:45;;;;;;;51.58;33.10;;;7.90;99.90;;;;;;7369892;19;20022;-63
2024/03/18 05:12:12;;;;;;;52.13;33.58;;;7.90;99.90;;;;;;7366032;19;20022;-63
2024/03/18 05:14:39;;;;;;;53.00;34.15;;;7.90;99.90;;;;;;7360982;19;21089;-63
2024/03/18 05:17:05;;;;;;;57.38;33.80;;;7.80;99.90;;;;;;7369872;19;20471;-63
2024/03/18 05:19:32;;;;;;;59.38;34.90;;;7.90;99.90;;;;;;7367302;19;20061;-63
2024/03/18 05:21:58;;;;;;;57.58;34.38;;;7.90;99.90;;;;;;7372657;19;20018;-64
2024/03/18 05:24:24;;;;;;;56.35;36.08;;;7.90;99.90;;;;;;7364947;19;20018;-64
2024/03/18 05:26:50;;;;;;;57.03;34.30;;;7.90;99.90;;;;;;7365466;19;20027;-63
2024/03/18 05:29:16;;;;;;;63.47;35.88;;;7.90;99.90;;;;;;7373196;19;20025;-64
2024/03/18 05:31:45;;;;;;;56.92;34.90;;;7.90;99.90;;;;;;7373239;19;20018;-62
2024/03/18 05:34:11;;;;;;;57.38;35.25;;;7.90;99.90;;;;;;7369010;19;20018;-62
2024/03/18 05:36:38;;;;;;;58.38;35.35;;;7.90;99.90;;;;;;7373217;19;20014;-65
2024/03/18 05:39:04;;;;;;;57.17;34.90;;;7.90;99.90;;;;;;7374656;19;20581;-65
2024/03/18 05:41:30;;;;;;;52.25;27.55;;;7.90;99.90;;;;;;7374659;19;21106;-65
2024/03/18 05:43:57;;;;;;;59.97;34.47;;;7.90;99.90;;;;;;7367741;19;20014;-64
2024/03/18 05:46:23;;;;;;;57.65;35.45;;;7.90;99.90;;;;;;7374279;19;20022;-64
2024/03/18 05:48:51;;;;;;;66.28;35.65;;;7.90;99.90;;;;;;7374814;19;20380;-63
2024/03/18 05:51:17;;;;;;;56.75;32.47;;;7.90;99.90;;;;;;7372963;19;20022;-63
2024/03/18 05:53:43;;;;;;;60.03;34.92;;;7.90;99.90;;;;;;7378079;19;20665;-66
2024/03/18 05:56:10;;;;;;;55.97;33.78;;;7.90;99.90;;;;;;7371361;19;20026;-63
2024/03/18 05:58:39;;;;;;;57.70;33.42;;;7.90;99.90;;;;;;7376502;19;20428;-65
2024/03/18 06:01:11;;;;;;;58.38;34.78;;;7.90;99.90;;;;;;7371418;19;20019;-63
2024/03/18 06:03:39;;;;;;;57.65;33.25;;;7.90;99.90;;;;;;7375262;19;20071;-65
2024/03/18 06:06:08;;;;;;;61.47;35.50;;;7.90;99.90;;;;;;7368585;19;20024;-65
2024/03/18 06:08:35;;;;;;;58.90;32.72;;;7.90;99.90;;;;;;7370814;19;20855;-64
2024/03/18 06:11:03;;;;;;;52.67;34.42;;;8.00;99.90;;;;;;7369957;19;20014;-62
2024/03/18 06:13:29;;;;;;;59.13;33.85;;;8.00;99.90;;;;;;7369572;19;20026;-63
2024/03/18 06:15:56;;;;;;;60.25;34.08;;;8.00;99.90;;;;;;7367076;19;20021;-65
2024/03/18 06:18:23;;;;;;;60.67;36.40;;;8.00;99.90;;;;;;7366519;19;20021;-65
2024/03/18 06:20:53;;;;;;;60.38;33.53;;;8.00;99.90;;;;;;7367386;19;20053;-63
2024/03/18 06:23:22;;;;;;;71.25;37.63;;;8.00;99.90;;;;;;7368862;19;20018;-62
2024/03/18 06:25:58;;;;;;;71.50;38.15;;;8.00;99.90;;;;;;7373660;19;20055;-61
2024/03/18 06:28:29;;;;;;;71.53;37.22;;;8.00;99.90;;;;;;7373556;19;20531;-64
2024/03/18 06:30:59;;;;;;;74.60;39.25;;;8.10;99.90;;;;;;7372178;19;20038;-64
2024/03/18 06:33:26;;;;;;;72.93;37.75;;;8.00;99.90;;;;;;7371518;19;20022;-64
2024/03/18 06:35:56;;;;;;;80.10;40.47;;;8.10;99.90;;;;;;7369649;19;20025;-65
2024/03/18 06:38:28;;;;;;;80.13;39.70;;;8.10;99.90;;;;;;7374293;19;20014;-65
2024/03/18 06:40:54;;;;;;;83.20;38.67;;;8.10;99.90;;;;;;7371288;19;20482;-64
2024/03/18 06:43:20;;;;;;;93.63;42.90;;;8.10;99.90;;;;;;7369788;19;20037;-64
2024/03/18 06:45:47;;;;;;;97.68;40.13;;;8.10;99.90;;;;;;7372456;19;20022;-64
2024/03/18 06:48:13;;;;;;;91.50;43.10;;;8.10;99.90;;;;;;7369042;19;20023;-65
2024/03/18 06:50:40;;;;;;;79.65;39.28;;;8.20;99.90;;;;;;7367940;19;20027;-65
2024/03/18 06:53:07;;;;;;;95.30;42.38;;;8.20;99.90;;;;;;7369121;19;20032;-64
2024/03/18 06:55:34;;;;;;;100.55;43.42;;;8.20;99.90;;;;;;7368701;19;20015;-65
2024/03/18 06:58:03;;;;;;;100.68;42.42;;;8.20;99.90;;;;;;7369197;19;20716;-65
2024/03/18 07:00:32;;;;;;;101.18;43.42;;;8.30;99.90;;;;;;7372133;19;20027;-64
2024/03/18 07:02:58;;;;;;;96.25;41.83;;;8.30;99.90;;;;;;7370949;19;20018;-66
2024/03/18 07:05:25;;;;;;;104.75;42.47;;;8.30;99.90;;;;;;7371117;19;20992;-65
2024/03/18 07:07:51;;;;;;;110.28;44.88;;;8.30;99.90;;;;;;7369731;19;20030;-66
2024/03/18 07:10:19;;;;;;;105.97;43.78;;;8.40;99.90;;;;;;7368847;19;20028;-65
2024/03/18 07:12:46;;;;;;;109.82;42.65;;;8.40;99.90;;;;;;7372165;19;20727;-64
2024/03/18 07:15:16;;;;;;;108.15;43.10;;;8.40;99.90;;;;;;7373420;19;20022;-63
2024/03/18 07:17:43;;;;;;;100.15;40.58;;;8.40;99.90;;;;;;7368302;19;20036;-63
2024/03/18 07:20:11;;;;;;;97.47;43.22;;;8.40;99.90;;;;;;7368934;19;20392;-65
2024/03/18 07:22:41;;;;;;;108.85;44.80;;;8.40;99.90;;;;;;7371136;19;20023;-64
2024/03/18 07:25:20;;;;;;;95.13;40.33;;;8.40;99.90;;;;;;7370199;19;20022;-64
2024/03/18 07:27:46;;;;;;;121.93;45.55;;;8.40;99.90;;;;;;7372654;19;20021;-65
2024/03/18 07:30:14;;;;;;;116.97;44.70;;;8.40;99.90;;;;;;7371661;19;20022;-63
2024/03/18 07:32:41;;;;;;;125.47;45.70;;;8.50;99.90;;;;;;7373953;19;20033;-64
2024/03/18 07:35:07;;;;;;;108.68;43.53;;;8.50;99.90;;;;;;7367605;19;20668;-65
2024/03/18 07:37:33;;;;;;;115.80;44.30;;;8.50;99.90;;;;;;7372876;19;20014;-65
2024/03/18 07:40:00;;;;;;;107.85;46.70;;;8.50;99.90;;;;;;7370324;19;20014;-65
2024/03/18 07:42:26;;;;;;;123.72;47.28;;;8.50;99.90;;;;;;7368903;19;20068;-66
2024/03/18 07:44:56;;;;;;;135.65;47.78;;;8.50;99.90;;;;;;7367055;19;20022;-66
2024/03/18 07:47:23;;;;;;;135.05;48.58;;;8.50;99.90;;;;;;7371496;19;20470;-64
2024/03/18 07:49:50;;;;;;;135.18;43.72;;;8.50;99.90;;;;;;7370173;19;20036;-63
2024/03/18 07:52:18;;;;;;;149.63;46.45;;;8.60;99.90;;;;;;7370387;19;20030;-66
2024/03/18 07:54:44;;;;;;;131.85;47.30;;;8.60;99.90;;;;;;7366722;19;20018;-64
2024/03/18 07:57:10;;;;;;;142.38;48.63;;;8.60;99.90;;;;;;7369192;19;20382;-64
2024/03/18 07:59:37;;;;;;;135.88;47.70;;;8.70;99.90;;;;;;7372125;19;20805;-64
2024/03/18 08:02:03;;;;;;;144.05;49.72;;;8.70;99.90;;;;;;7368234;19;20054;-65
2024/03/18 08:04:30;;;;;;;132.32;46.65;;;8.70;99.90;;;;;;7366567;19;20401;-65
2024/03/18 08:06:56;;;;;;;124.90;47.65;;;8.80;99.90;;;;;;7364302;19;20055;-65
2024/03/18 08:09:23;;;;;;;138.57;49.08;;;8.80;99.90;;;;;;7371306;19;20019;-64
2024/03/18 08:11:50;;;;;;;156.13;50.35;;;8.80;99.90;;;;;;7375315;19;20018;-65
2024/03/18 08:14:18;;;;;;;143.93;48.25;;;8.80;99.90;;;;;;7371706;19;20010;-64
2024/03/18 08:16:45;;;;;;;140.23;49.90;;;8.80;99.90;;;;;;7375841;19;20098;-65
2024/03/18 08:19:11;;;;;;;159.50;52.35;;;8.80;99.90;;;;;;7376990;19;20089;-64
2024/03/18 08:21:37;;;;;;;151.65;53.40;;;8.80;99.90;;;;;;7376211;19;20029;-64
2024/03/18 08:24:04;;;;;;;142.10;51.08;;;8.90;99.90;;;;;;7375085;19;20022;-64
2024/03/18 08:26:33;;;;;;;134.30;52.38;;;8.90;99.90;;;;;;7375237;19;20024;-65
2024/03/18 08:29:00;;;;;;;156.18;52.17;;;9.00;99.90;;;;;;7374485;19;20105;-65
2024/03/18 08:31:27;;;;;;;143.65;51.75;;;9.00;99.90;;;;;;7375509;19;20018;-65
2024/03/18 08:33:56;;;;;;;164.75;53.17;;;9.00;99.90;;;;;;7374368;19;20025;-65
2024/03/18 08:36:22;;;;;;;163.93;52.78;;;9.10;99.90;;;;;;7372417;19;20560;-64
2024/03/18 08:38:49;;;;;;;159.30;52.20;;;9.10;99.90;;;;;;7376803;19;20588;-65
2024/03/18 08:41:16;;;;;;;145.80;50.85;;;9.20;99.90;;;;;;7371899;19;20067;-64
2024/03/18 08:43:42;;;;;;;143.90;53.25;;;9.30;99.90;;;;;;7375482;19;20018;-65
2024/03/18 08:46:08;;;;;;;134.68;49.67;;;9.40;99.90;;;;;;7372793;19;20383;-64
2024/03/18 08:48:34;;;;;;;131.88;52.40;;;9.50;99.90;;;;;;7376554;19;20018;-64
2024/03/18 08:51:01;;;;;;;112.90;50.13;;;9.60;99.90;;;;;;7374325;19;20864;-64
2024/03/18 08:53:29;;;;;;;127.45;50.65;;;9.70;99.90;;;;;;7376743;19;20494;-65
2024/03/18 08:55:55;;;;;;;125.43;50.38;;;9.70;99.90;;;;;;7370379;19;20011;-66
2024/03/18 08:58:21;;;;;;;123.32;49.88;;;9.80;99.90;;;;;;7378398;19;20023;-67
2024/03/18 09:00:50;;;;;;;117.55;50.33;;;9.80;99.90;;;;;;7376262;19;20052;-65
2024/03/18 09:03:17;;;;;;;115.10;47.60;;;9.90;99.90;;;;;;7375811;19;20372;-66
2024/03/18 09:05:53;;;;;;;103.03;46.72;;;10.00;99.90;;;;;;7375305;19;20025;-66
2024/03/18 09:08:20;;;;;;;104.82;48.60;;;10.00;99.90;;;;;;7376425;19;20584;-67
2024/03/18 09:10:46;;;;;;;103.82;47.15;;;10.00;99.90;;;;;;7376196;19;20109;-66
2024/03/18 09:13:14;;;;;;;97.78;47.17;;;10.00;99.90;;;;;;7374418;19;20083;-65
2024/03/18 09:15:41;;;;;;;100.47;45.20;;;10.00;99.90;;;;;;7373784;19;20086;-65
2024/03/18 09:18:07;;;;;;;106.78;48.15;;;10.00;99.90;;;;;;7371685;19;20025;-66
2024/03/18 09:20:33;;;;;;;108.57;46.38;;;10.00;99.90;;;;;;7376883;19;20022;-66
2024/03/18 09:22:59;;;;;;;114.18;46.33;;;10.00;99.90;;;;;;7373202;19;20060;-65
2024/03/18 09:25:25;;;;;;;98.50;46.58;;;9.90;99.90;;;;;;7375766;19;20022;-65
2024/03/18 09:27:51;;;;;;;113.43;48.35;;;9.90;99.90;;;;;;7375301;19;20026;-65
2024/03/18 09:30:21;;;;;;;113.22;46.10;;;9.90;99.90;;;;;;7376716;19;20029;-65
2024/03/18 09:32:47;;;;;;;180.27;54.95;;;9.90;99.90;;;;;;7377735;19;20018;-66
2024/03/18 09:35:13;;;;;;;103.30;45.78;;;9.90;99.90;;;;;;7373926;19;20078;-66
2024/03/18 09:37:40;;;;;;;120.20;49.53;;;10.00;99.90;;;;;;7371332;19;20025;-65
2024/03/18 09:40:06;;;;;;;96.97;45.80;;;10.10;99.90;;;;;;7375036;19;20616;-66
2024/03/18 09:42:34;;;;;;;114.55;48.53;;;10.00;99.90;;;;;;7373342;19;20742;-66
2024/03/18 09:45:01;;;;;;;113.63;47.78;;;10.00;99.90;;;;;;7370309;19;20649;-66
2024/03/18 09:47:31;;;;;;;114.47;47.95;;;10.00;99.90;;;;;;7375408;19;20027;-65
2024/03/18 09:49:57;;;;;;;120.30;47.88;;;10.10;99.90;;;;;;7371296;19;20022;-65
2024/03/18 09:52:28;;;;;;;116.03;50.00;;;10.10;99.90;;;;;;7375540;19;20026;-66
2024/03/18 09:54:54;;;;;;;106.18;47.88;;;10.10;99.90;;;;;;7370115;19;20031;-65
2024/03/18 09:57:24;;;;;;;115.55;50.58;;;10.10;99.90;;;;;;7372416;19;20480;-65
2024/03/18 09:59:51;;;;;;;121.88;50.50;;;10.10;99.90;;;;;;7376025;19;20026;-65
2024/03/18 10:02:17;;;;;;;121.03;50.65;;;10.10;99.90;;;;;;7373676;19;20938;-66
2024/03/18 10:04:46;;;;;;;123.97;50.85;;;10.10;99.90;;;;;;7371703;19;20025;-65
2024/03/18 10:07:14;;;;;;;104.80;48.13;;;10.10;99.90;;;;;;7370652;19;20018;-64
2024/03/18 10:09:44;;;;;;;125.85;51.40;;;10.10;99.90;;;;;;7375408;19;20019;-65
2024/03/18 10:12:12;;;;;;;103.93;46.45;;;10.10;99.90;;;;;;7371819;19;20026;-65
2024/03/18 10:14:39;;;;;;;112.47;47.80;;;10.10;99.90;;;;;;7374223;19;20022;-64
2024/03/18 10:17:11;;;;;;;112.47;49.10;;;10.20;99.90;;;;;;7369625;19;20848;-64
2024/03/18 10:19:38;;;;;;;110.95;49.45;;;10.30;99.90;;;;;;7365443;19;20037;-64
2024/03/18 10:22:12;;;;;;;107.93;46.92;;;10.40;99.90;;;;;;7362043;19;20054;-63
2024/03/18 10:24:43;;;;;;;95.38;43.63;;;10.40;99.90;;;;;;7366779;19;20029;-64
2024/03/18 10:27:10;;;;;;;93.72;42.30;;;10.50;99.90;;;;;;7366778;19;20029;-65
2024/03/18 10:29:38;;;;;;;87.65;45.05;;;10.60;99.90;;;;;;7367452;19;20014;-64
2024/03/18 10:32:11;;;;;;;88.40;44.70;;;10.60;99.90;;;;;;7367334;19;20018;-61
2024/03/18 10:34:41;;;;;;;75.25;38.60;;;10.70;99.90;;;;;;7368328;19;20022;-62
2024/03/18 10:37:16;;;;;;;87.57;45.57;;;10.70;99.90;;;;;;7370429;19;20871;-65
2024/03/18 10:39:48;;;;;;;81.07;43.00;;;10.80;99.90;;;;;;7367180;19;20267;-65
2024/03/18 10:42:16;;;;;;;90.65;45.55;;;10.90;99.90;;;;;;7363966;19;20025;-65
2024/03/18 10:44:52;;;;;;;88.40;45.65;;;11.00;99.90;;;;;;7365495;19;20030;-65
2024/03/18 10:47:22;;;;;;;86.97;46.05;;;11.00;99.90;;;;;;7366374;19;20022;-65
2024/03/18 10:49:48;;;;;;;86.55;44.10;;;11.10;99.90;;;;;;7363500;19;20022;-63
2024/03/18 10:52:15;;;;;;;88.57;45.55;;;11.10;99.90;;;;;;7366677;19;20038;-62
2024/03/18 10:54:42;;;;;;;76.15;40.40;;;11.10;99.90;;;;;;7370456;19;20041;-65
2024/03/18 10:57:09;;;;;;;81.13;43.55;;;11.10;99.90;;;;;;7365797;19;20023;-65
2024/03/18 10:59:36;;;;;;;79.78;44.55;;;11.20;99.90;;;;;;7363635;19;20364;-64
2024/03/18 11:02:03;;;;;;;80.72;41.92;;;11.30;99.90;;;;;;7365891;19;20029;-63
2024/03/18 11:04:29;;;;;;;71.63;41.25;;;11.40;99.90;;;;;;7364312;19;20078;-64
2024/03/18 11:06:56;;;;;;;76.78;42.42;;;11.30;99.90;;;;;;7370945;19;20041;-64
2024/03/18 11:09:23;;;;;;;74.68;41.45;;;11.40;99.90;;;;;;7362032;19;21372;-64
2024/03/18 11:11:51;;;;;;;67.53;39.72;;;11.50;99.90;;;;;;7365688;19;20018;-64
2024/03/18 11:14:28;;;;;;;61.38;36.97;;;11.60;99.90;;;;;;7366433;19;20018;-64
2024/03/18 11:16:57;;;;;;;65.50;37.55;;;11.60;99.90;;;;;;7368623;19;20026;-64
2024/03/18 11:19:26;;;;;;;62.15;36.10;;;11.70;99.90;;;;;;7374783;19;20109;-64
2024/03/18 11:22:00;;;;;;;63.00;37.88;;;11.90;99.90;;;;;;7367258;19;20804;-64
2024/03/18 11:24:27;;;;;;;55.55;35.03;;;12.10;99.90;;;;;;7371566;19;20627;-63
2024/03/18 11:26:57;;;;;;;53.28;34.05;;;12.40;99.90;;;;;;7367847;19;20354;-64
2024/03/18 11:29:55;;;;;;;56.03;36.08;;;12.80;99.90;;;;;;7362642;19;20015;-65
2024/03/18 11:32:25;;;;;;;48.65;34.70;;;13.00;99.90;;;;;;7362176;19;20018;-64
2024/03/18 11:34:58;;;;;;;54.45;35.60;;;13.10;99.90;;;;;;7369349;19;20019;-65
2024/03/18 11:37:24;;;;;;;46.75;34.80;;;13.10;99.90;;;;;;7363989;19;20022;-64
2024/03/18 11:39:51;;;;;;;47.35;32.45;;;13.20;99.90;;;;;;7369815;19;20022;-66
2024/03/18 11:42:18;;;;;;;40.63;30.63;;;13.30;99.90;;;;;;7365042;19;20022;-65
2024/03/18 11:44:48;;;;;;;45.13;31.63;;;13.30;99.90;;;;;;7360823;19;20680;-65
2024/03/18 11:47:15;;;;;;;44.45;31.45;;;13.30;99.90;;;;;;7370538;19;20026;-64
2024/03/18 11:49:41;;;;;;;41.92;30.70;;;13.30;99.90;;;;;;7370293;19;20053;-64
2024/03/18 11:52:12;;;;;;;41.75;29.92;;;13.20;99.90;;;;;;7375193;19;20105;-65
2024/03/18 11:54:39;;;;;;;42.05;29.98;;;13.30;99.90;;;;;;7372392;19;20022;-65
2024/03/18 11:57:05;;;;;;;40.78;30.65;;;13.10;99.90;;;;;;7376152;19;20123;-65
2024/03/18 11:59:31;;;;;;;38.40;28.65;;;13.00;99.90;;;;;;7369726;19;20025;-65
2024/03/18 12:02:01;;;;;;;40.13;29.48;;;13.00;99.90;;;;;;7374888;19;20052;-66
2024/03/18 12:04:29;;;;;;;38.88;29.83;;;12.90;99.90;;;;;;7370645;19;20046;-64
2024/03/18 12:06:55;;;;;;;36.65;28.30;;;12.70;99.90;;;;;;7372439;19;20362;-66
2024/03/18 12:09:29;;;;;;;40.97;29.65;;;12.70;99.90;;;;;;7370344;19;20047;-65
2024/03/18 12:11:55;;;;;;;39.65;29.30;;;12.60;99.90;;;;;;7373478;19;21316;-65
2024/03/18 12:14:21;;;;;;;42.42;30.05;;;12.60;99.90;;;;;;7373759;19;20597;-65
2024/03/18 12:16:53;;;;;;;42.33;30.92;;;12.60;99.90;;;;;;7369947;19;20506;-65
2024/03/18 12:19:19;;;;;;;43.30;31.10;;;12.60;99.90;;;;;;7373244;19;20042;-65
2024/03/18 12:21:49;;;;;;;41.70;29.63;;;12.60;99.90;;;;;;7365152;19;20117;-65
2024/03/18 12:30:03;;;;;;;39.60;28.98;;;12.70;99.90;;;;;;7369327;19;21000;-65
2024/03/18 12:32:30;;;;;;;43.38;31.00;;;12.70;99.90;;;;;;7375172;19;20035;-65
2024/03/18 12:34:56;;;;;;;43.42;30.58;;;12.80;99.90;;;;;;7365971;19;20031;-64
2024/03/18 12:37:23;;;;;;;40.05;29.17;;;12.90;99.90;;;;;;7371965;19;20019;-65